Time;durP1;ratioP1;P1;durP2;ratioP2;P2;SDS_P1;SDS_P2;PMS_P1;PMS_P2;Temp;Humidity;BMP_temperature;BMP_pressure;BME280_temperature;BME280_humidity;BME280_pressure;Samples;Min_cycle;Max_cycle;Signal;HPM_P1;HPM_P2
2021/03/15 00:01:05;;;;;;;7.90;3.42;;;;;;;;;;5107091;28;20038;-64
2021/03/15 00:03:30;;;;;;;7.30;3.28;;;;;;;;;;5105042;28;20032;-64
2021/03/15 00:05:56;;;;;;;9.35;3.00;;;;;;;;;;5105371;28;20039;-64
2021/03/15 00:08:22;;;;;;;8.73;3.33;;;;;;;;;;5105328;28;20034;-63
2021/03/15 00:10:47;;;;;;;10.35;3.17;;;;;;;;;;5105720;28;20028;-63
2021/03/15 00:13:14;;;;;;;7.82;3.13;;;;;;;;;;5106371;28;20055;-64
2021/03/15 00:15:40;;;;;;;7.13;2.75;;;;;;;;;;5104227;28;20043;-64
2021/03/15 00:18:06;;;;;;;5.90;3.10;;;;;;;;;;5106737;28;20046;-64
2021/03/15 00:20:32;;;;;;;4.55;2.60;;;;;;;;;;5103852;28;20031;-64
2021/03/15 00:22:58;;;;;;;6.30;2.60;;;;;;;;;;5104577;28;20035;-64
2021/03/15 00:25:23;;;;;;;7.03;3.13;;;;;;;;;;5104828;28;20043;-64
2021/03/15 00:27:49;;;;;;;6.50;3.00;;;;;;;;;;5106073;28;20054;-64
2021/03/15 00:30:16;;;;;;;7.00;3.17;;;;;;;;;;5104843;28;20481;-64
2021/03/15 00:32:43;;;;;;;6.20;2.83;;;;;;;;;;5104912;28;20028;-64
2021/03/15 00:35:10;;;;;;;4.78;2.90;;;;;;;;;;5105389;28;20031;-64
2021/03/15 00:37:36;;;;;;;5.38;2.95;;;;;;;;;;5104084;28;20028;-64
2021/03/15 00:40:04;;;;;;;5.53;2.50;;;;;;;;;;5105656;28;20119;-64
2021/03/15 00:42:29;;;;;;;9.85;2.90;;;;;;;;;;5103936;28;20118;-64
2021/03/15 00:44:54;;;;;;;8.95;3.85;;;;;;;;;;5106210;28;20129;-64
2021/03/15 00:47:20;;;;;;;7.57;3.03;;;;;;;;;;5104993;28;20028;-64
2021/03/15 00:49:45;;;;;;;7.78;3.10;;;;;;;;;;5103556;28;20038;-64
2021/03/15 00:52:11;;;;;;;6.20;3.03;;;;;;;;;;5105629;28;20034;-63
2021/03/15 00:54:36;;;;;;;6.55;3.03;;;;;;;;;;5103039;28;20028;-64
2021/03/15 00:57:02;;;;;;;7.82;3.50;;;;;;;;;;5103820;28;20410;-64
2021/03/15 00:59:27;;;;;;;6.20;3.20;;;;;;;;;;5103748;28;20047;-64
2021/03/15 01:01:52;;;;;;;5.45;2.95;;;;;;;;;;5103702;28;20069;-63
2021/03/15 01:04:18;;;;;;;5.53;3.13;;;;;;;;;;5100946;28;20474;-64
2021/03/15 01:06:44;;;;;;;5.97;3.30;;;;;;;;;;5101579;28;20036;-63
2021/03/15 01:09:10;;;;;;;7.10;3.20;;;;;;;;;;5105757;28;20058;-64
2021/03/15 01:11:37;;;;;;;7.03;3.40;;;;;;;;;;5102470;28;20028;-63
2021/03/15 01:14:03;;;;;;;6.80;3.50;;;;;;;;;;5103388;28;20114;-64
2021/03/15 01:16:29;;;;;;;7.57;3.70;;;;;;;;;;5103910;28;20126;-64
2021/03/15 01:18:54;;;;;;;9.23;3.88;;;;;;;;;;5102319;28;20134;-63
2021/03/15 01:21:20;;;;;;;9.00;4.05;;;;;;;;;;5104228;28;20028;-63
2021/03/15 01:23:45;;;;;;;6.70;4.10;;;;;;;;;;5103374;28;20046;-63
2021/03/15 01:26:11;;;;;;;10.32;4.18;;;;;;;;;;5105623;28;20091;-63
2021/03/15 01:28:36;;;;;;;6.72;4.30;;;;;;;;;;5103526;28;20084;-64
2021/03/15 01:31:02;;;;;;;7.85;4.70;;;;;;;;;;5100780;28;20035;-64
2021/03/15 01:33:27;;;;;;;6.05;3.75;;;;;;;;;;5103426;28;20485;-63
2021/03/15 01:35:53;;;;;;;9.43;4.70;;;;;;;;;;5103299;28;20019;-63
2021/03/15 01:38:19;;;;;;;6.60;3.95;;;;;;;;;;5103658;28;20042;-63
2021/03/15 01:40:44;;;;;;;6.28;3.50;;;;;;;;;;5104304;28;20024;-63
2021/03/15 01:43:10;;;;;;;6.93;4.38;;;;;;;;;;5103550;28;20035;-63
2021/03/15 01:45:36;;;;;;;7.43;4.90;;;;;;;;;;5103255;28;20067;-63
2021/03/15 01:48:04;;;;;;;6.60;4.00;;;;;;;;;;5103055;28;20460;-63
2021/03/15 01:50:30;;;;;;;6.57;4.05;;;;;;;;;;5103192;28;20360;-64
2021/03/15 01:52:55;;;;;;;9.80;5.00;;;;;;;;;;5104272;28;20035;-64
2021/03/15 01:55:22;;;;;;;8.88;4.82;;;;;;;;;;5104240;28;20027;-63
2021/03/15 01:57:48;;;;;;;9.15;4.68;;;;;;;;;;5102721;28;20040;-64
2021/03/15 02:00:16;;;;;;;8.60;4.60;;;;;;;;;;5104976;28;20040;-64
2021/03/15 02:02:46;;;;;;;7.63;5.20;;;;;;;;;;5103621;28;20024;-64
2021/03/15 02:05:12;;;;;;;7.53;4.95;;;;;;;;;;5102451;28;20032;-64
2021/03/15 02:07:37;;;;;;;9.13;5.07;;;;;;;;;;5106553;28;20043;-64
2021/03/15 02:10:04;;;;;;;12.50;5.13;;;;;;;;;;5109369;28;20031;-64
2021/03/15 02:12:54;;;;;;;8.25;4.82;;;;;;;;;;5106643;28;20039;-64
2021/03/15 02:15:40;;;;;;;9.68;4.60;;;;;;;;;;5104799;28;20463;-64
2021/03/15 02:18:28;;;;;;;10.65;5.28;;;;;;;;;;5108085;28;20046;-64
2021/03/15 02:21:31;;;;;;;12.80;5.30;;;;;;;;;;5108648;28;20076;-64
2021/03/15 02:24:03;;;;;;;11.40;5.93;;;;;;;;;;5107938;28;20066;-64
2021/03/15 02:26:50;;;;;;;11.00;5.63;;;;;;;;;;5106187;28;20046;-64
2021/03/15 02:29:34;;;;;;;10.13;5.70;;;;;;;;;;5103902;28;20024;-63
2021/03/15 02:32:33;;;;;;;7.35;5.75;;;;;;;;;;5106715;28;20039;-64
2021/03/15 02:35:15;;;;;;;7.90;5.60;;;;;;;;;;5108745;28;20063;-64
2021/03/15 02:37:45;;;;;;;12.48;6.25;;;;;;;;;;5103664;28;20028;-64
2021/03/15 02:40:22;;;;;;;7.90;5.50;;;;;;;;;;5107535;28;20449;-64
2021/03/15 02:42:51;;;;;;;9.75;5.95;;;;;;;;;;5107223;28;20031;-63
2021/03/15 02:45:18;;;;;;;10.95;6.28;;;;;;;;;;5103978;28;20063;-64
2021/03/15 02:47:45;;;;;;;8.95;6.45;;;;;;;;;;5105759;28;20024;-63
2021/03/15 02:50:13;;;;;;;10.18;6.00;;;;;;;;;;5107457;28;20372;-62
2021/03/15 02:52:47;;;;;;;7.38;5.18;;;;;;;;;;5104627;28;20027;-62
2021/03/15 02:55:17;;;;;;;9.95;5.78;;;;;;;;;;5107287;28;20027;-63
2021/03/15 02:57:46;;;;;;;8.50;5.82;;;;;;;;;;5103242;28;20035;-64
2021/03/15 03:00:14;;;;;;;11.43;6.35;;;;;;;;;;5107435;28;20092;-63
2021/03/15 03:02:46;;;;;;;12.25;6.07;;;;;;;;;;5101077;28;20024;-64
2021/03/15 03:05:12;;;;;;;;;;;;;;;;;;5106336;28;20345;-63
2021/03/15 03:07:40;;;;;;;10.05;5.85;;;;;;;;;;5105676;28;19912;-63
2021/03/15 03:10:09;;;;;;;9.70;5.22;;;;;;;;;;5105336;28;20119;-63
2021/03/15 03:12:36;;;;;;;8.07;5.63;;;;;;;;;;5104775;28;20115;-63
2021/03/15 03:15:05;;;;;;;8.82;5.35;;;;;;;;;;5106145;28;20031;-64
2021/03/15 03:17:36;;;;;;;12.55;6.15;;;;;;;;;;5101912;28;20511;-63
2021/03/15 03:20:03;;;;;;;12.90;5.95;;;;;;;;;;5107016;28;20031;-64
2021/03/15 03:22:29;;;;;;;12.13;6.18;;;;;;;;;;5101816;28;20461;-63
2021/03/15 03:24:56;;;;;;;12.73;6.10;;;;;;;;;;5107582;28;20126;-64
2021/03/15 03:27:21;;;;;;;11.65;6.40;;;;;;;;;;5106334;28;20015;-64
2021/03/15 03:29:48;;;;;;;10.75;5.25;;;;;;;;;;5106765;28;20356;-62
2021/03/15 03:32:14;;;;;;;9.68;6.68;;;;;;;;;;5105958;28;20092;-62
2021/03/15 03:34:40;;;;;;;14.07;7.05;;;;;;;;;;5105772;28;20032;-63
2021/03/15 03:37:06;;;;;;;10.65;5.88;;;;;;;;;;5106614;28;20035;-63
2021/03/15 03:39:31;;;;;;;9.75;5.78;;;;;;;;;;5099208;28;20037;-63
2021/03/15 03:41:56;;;;;;;16.10;6.45;;;;;;;;;;5101757;28;20043;-63
2021/03/15 03:44:22;;;;;;;17.50;6.55;;;;;;;;;;5105968;28;20091;-63
2021/03/15 03:46:47;;;;;;;12.68;6.32;;;;;;;;;;5106851;28;20118;-62
2021/03/15 03:49:14;;;;;;;11.23;6.72;;;;;;;;;;5102150;28;20047;-62
2021/03/15 03:52:01;;;;;;;13.35;7.50;;;;;;;;;;5106110;28;20463;-63
2021/03/15 03:54:30;;;;;;;11.98;6.68;;;;;;;;;;5104738;28;20035;-63
2021/03/15 03:57:05;;;;;;;13.82;7.38;;;;;;;;;;5098770;28;20040;-62
2021/03/15 03:59:33;;;;;;;19.25;7.75;;;;;;;;;;5105842;28;20028;-62
2021/03/15 04:02:01;;;;;;;12.02;6.57;;;;;;;;;;5107699;28;20032;-62
2021/03/15 04:04:30;;;;;;;10.85;6.63;;;;;;;;;;5104995;28;20031;-62
2021/03/15 04:06:56;;;;;;;11.77;7.10;;;;;;;;;;5106143;28;20038;-62
2021/03/15 04:09:28;;;;;;;16.25;8.10;;;;;;;;;;5103264;28;20024;-62
2021/03/15 04:11:57;;;;;;;18.60;7.53;;;;;;;;;;5106166;28;20024;-62
2021/03/15 04:14:29;;;;;;;12.50;8.27;;;;;;;;;;5105141;28;20042;-62
2021/03/15 04:16:57;;;;;;;11.27;7.32;;;;;;;;;;5106597;28;20027;-62
2021/03/15 04:19:35;;;;;;;18.85;7.88;;;;;;;;;;5102231;28;20038;-62
2021/03/15 04:22:05;;;;;;;17.90;7.90;;;;;;;;;;5105587;28;20032;-62
2021/03/15 04:24:31;;;;;;;16.77;8.18;;;;;;;;;;5103873;28;20043;-62
2021/03/15 04:26:57;;;;;;;18.70;7.97;;;;;;;;;;5104500;28;20096;-62
2021/03/15 04:29:26;;;;;;;13.32;7.22;;;;;;;;;;5102252;28;20055;-62
2021/03/15 04:31:54;;;;;;;17.55;8.55;;;;;;;;;;5104735;28;20508;-62
2021/03/15 04:34:21;;;;;;;14.60;8.93;;;;;;;;;;5104960;28;20368;-63
2021/03/15 04:36:49;;;;;;;14.75;8.80;;;;;;;;;;5100631;28;20059;-63
2021/03/15 04:39:14;;;;;;;14.60;7.63;;;;;;;;;;5105523;28;20024;-62
2021/03/15 04:41:41;;;;;;;17.80;8.32;;;;;;;;;;5104436;28;20666;-62
2021/03/15 04:44:07;;;;;;;13.10;7.70;;;;;;;;;;5106110;28;20039;-63
2021/03/15 04:46:33;;;;;;;10.20;7.22;;;;;;;;;;5102168;28;20036;-62
2021/03/15 04:49:03;;;;;;;15.73;7.10;;;;;;;;;;5105956;28;20422;-62
2021/03/15 04:51:29;;;;;;;13.97;7.67;;;;;;;;;;5103724;28;20024;-62
2021/03/15 04:53:55;;;;;;;11.35;7.60;;;;;;;;;;5104199;28;20637;-62
2021/03/15 04:56:21;;;;;;;14.15;7.63;;;;;;;;;;5104863;28;20034;-63
2021/03/15 04:58:50;;;;;;;11.15;7.38;;;;;;;;;;5105046;28;20032;-62
2021/03/15 05:01:17;;;;;;;12.93;7.45;;;;;;;;;;5095180;28;20473;-62
2021/03/15 05:03:44;;;;;;;10.00;6.80;;;;;;;;;;5104670;28;20024;-62
2021/03/15 05:06:11;;;;;;;13.18;7.70;;;;;;;;;;5104792;28;20027;-63
2021/03/15 05:08:43;;;;;;;11.95;7.60;;;;;;;;;;5101572;28;20020;-62
2021/03/15 05:11:10;;;;;;;10.95;6.72;;;;;;;;;;5099543;28;20036;-63
2021/03/15 05:13:39;;;;;;;12.75;6.85;;;;;;;;;;5103028;28;20453;-63
2021/03/15 05:16:07;;;;;;;13.50;7.55;;;;;;;;;;5104301;28;20035;-63
2021/03/15 05:18:34;;;;;;;16.60;7.10;;;;;;;;;;5100454;28;20107;-63
2021/03/15 05:21:00;;;;;;;14.85;7.00;;;;;;;;;;5105384;28;20173;-62
2021/03/15 05:23:26;;;;;;;14.20;7.03;;;;;;;;;;5103585;28;20053;-62
2021/03/15 05:25:53;;;;;;;13.10;7.70;;;;;;;;;;5105139;28;20051;-62
2021/03/15 05:28:22;;;;;;;12.13;6.30;;;;;;;;;;5103109;28;20028;-62
2021/03/15 05:30:49;;;;;;;12.63;7.20;;;;;;;;;;5104549;28;20102;-62
2021/03/15 05:33:18;;;;;;;12.70;6.93;;;;;;;;;;5104834;28;20028;-62
2021/03/15 05:35:45;;;;;;;13.63;7.47;;;;;;;;;;5102940;28;20021;-63
2021/03/15 05:38:11;;;;;;;12.93;6.40;;;;;;;;;;5104019;28;20464;-62
2021/03/15 05:40:38;;;;;;;19.67;6.97;;;;;;;;;;5103147;28;20036;-63
2021/03/15 05:43:15;;;;;;;15.00;6.40;;;;;;;;;;5106500;28;20026;-63
2021/03/15 05:46:06;;;;;;;11.73;5.72;;;;;;;;;;5103907;28;20024;-63
2021/03/15 05:48:45;;;;;;;11.07;6.47;;;;;;;;;;5107161;28;20028;-62
2021/03/15 05:51:29;;;;;;;9.93;5.05;;;;;;;;;;5108089;28;20465;-62
2021/03/15 05:54:04;;;;;;;9.60;5.32;;;;;;;;;;5108016;28;20107;-62
2021/03/15 05:56:55;;;;;;;8.55;4.68;;;;;;;;;;5107189;28;20059;-62
2021/03/15 05:59:26;;;;;;;7.53;4.30;;;;;;;;;;5104792;28;20031;-62
2021/03/15 06:02:09;;;;;;;8.02;4.07;;;;;;;;;;5103670;28;20049;-62
2021/03/15 06:04:53;;;;;;;9.60;4.40;;;;;;;;;;5106370;28;20038;-63
2021/03/15 06:07:28;;;;;;;13.65;4.93;;;;;;;;;;5103684;28;20035;-62
2021/03/15 06:10:05;;;;;;;9.50;4.13;;;;;;;;;;5108018;28;20044;-62
2021/03/15 06:12:56;;;;;;;12.57;4.20;;;;;;;;;;5106593;28;20344;-62
2021/03/15 06:15:33;;;;;;;9.52;4.57;;;;;;;;;;5103506;28;20067;-62
2021/03/15 06:18:03;;;;;;;6.38;4.03;;;;;;;;;;5108639;28;20027;-63
2021/03/15 06:20:29;;;;;;;11.93;4.43;;;;;;;;;;5097696;28;21048;-63
2021/03/15 06:22:55;;;;;;;8.35;3.95;;;;;;;;;;5098001;28;20067;-63
2021/03/15 06:25:21;;;;;;;8.20;3.97;;;;;;;;;;5103258;28;20036;-63
2021/03/15 06:27:47;;;;;;;5.72;2.92;;;;;;;;;;5107914;28;20126;-63
2021/03/15 06:30:13;;;;;;;4.45;2.53;;;;;;;;;;5107175;28;20532;-63
2021/03/15 06:32:40;;;;;;;6.60;3.60;;;;;;;;;;5106669;28;20107;-63
2021/03/15 06:35:06;;;;;;;6.20;2.72;;;;;;;;;;5093093;28;20047;-63
2021/03/15 06:37:33;;;;;;;5.72;2.60;;;;;;;;;;5091612;28;20480;-63
2021/03/15 06:40:00;;;;;;;4.40;2.53;;;;;;;;;;5106634;28;20369;-63
2021/03/15 06:42:27;;;;;;;5.88;2.70;;;;;;;;;;5087362;28;20043;-63
2021/03/15 06:44:53;;;;;;;5.68;2.28;;;;;;;;;;5105775;28;20047;-63
2021/03/15 06:47:18;;;;;;;4.00;1.90;;;;;;;;;;5100788;28;20039;-62
2021/03/15 06:49:44;;;;;;;6.65;2.97;;;;;;;;;;5097945;28;20028;-62
2021/03/15 06:52:10;;;;;;;4.55;2.22;;;;;;;;;;5085749;28;20028;-64
2021/03/15 06:54:36;;;;;;;4.68;2.33;;;;;;;;;;5092492;28;20036;-63
2021/03/15 06:57:15;;;;;;;5.55;2.53;;;;;;;;;;5096379;28;20410;-60
2021/03/15 06:59:52;;;;;;;6.40;2.30;;;;;;;;;;5090987;28;20028;-64
2021/03/15 07:02:29;;;;;;;4.20;2.38;;;;;;;;;;5096887;28;20028;-64
2021/03/15 07:05:06;;;;;;;4.38;2.13;;;;;;;;;;5107507;28;20084;-64
2021/03/15 07:07:31;;;;;;;4.80;2.40;;;;;;;;;;5100687;28;20102;-64
2021/03/15 07:09:57;;;;;;;5.90;2.25;;;;;;;;;;5105790;28;20520;-63
2021/03/15 07:12:24;;;;;;;4.65;2.25;;;;;;;;;;5105797;28;20080;-64
2021/03/15 07:14:52;;;;;;;4.63;2.30;;;;;;;;;;5101889;28;20043;-61
2021/03/15 07:17:25;;;;;;;5.15;2.78;;;;;;;;;;5091554;28;20039;-63
2021/03/15 07:19:52;;;;;;;5.68;2.80;;;;;;;;;;5094899;28;20492;-61
2021/03/15 07:22:20;;;;;;;3.50;2.10;;;;;;;;;;5099190;28;20081;-61
2021/03/15 07:25:03;;;;;;;4.20;2.60;;;;;;;;;;5102444;28;20059;-61
2021/03/15 07:27:32;;;;;;;6.95;3.35;;;;;;;;;;5096927;28;20047;-61
2021/03/15 07:30:28;;;;;;;4.43;2.92;;;;;;;;;;5099801;28;20043;-61
2021/03/15 07:33:14;;;;;;;4.82;2.80;;;;;;;;;;5102051;28;20111;-61
2021/03/15 07:35:40;;;;;;;4.63;2.65;;;;;;;;;;5098345;28;20048;-61
2021/03/15 07:38:06;;;;;;;4.47;2.75;;;;;;;;;;5107063;28;20595;-61
2021/03/15 07:40:35;;;;;;;5.72;2.53;;;;;;;;;;5104657;28;20357;-61
2021/03/15 07:43:06;;;;;;;4.18;2.33;;;;;;;;;;5105798;28;20066;-61
2021/03/15 07:45:42;;;;;;;5.57;2.35;;;;;;;;;;5099944;28;20032;-61
2021/03/15 07:48:14;;;;;;;5.28;2.55;;;;;;;;;;5101749;28;20039;-61
2021/03/15 07:50:42;;;;;;;3.38;2.17;;;;;;;;;;5101464;28;20039;-61
2021/03/15 07:53:08;;;;;;;6.13;2.70;;;;;;;;;;5105831;28;20057;-61
2021/03/15 07:55:39;;;;;;;3.25;1.88;;;;;;;;;;5104949;28;20055;-61
2021/03/15 07:58:39;;;;;;;4.25;2.72;;;;;;;;;;5103344;28;20028;-61
2021/03/15 08:01:06;;;;;;;3.97;2.05;;;;;;;;;;5080975;28;20521;-61
2021/03/15 08:03:32;;;;;;;4.20;2.38;;;;;;;;;;5097941;28;20047;-61
2021/03/15 08:05:59;;;;;;;5.55;2.72;;;;;;;;;;5107004;28;20031;-61
2021/03/15 08:08:25;;;;;;;3.28;2.05;;;;;;;;;;5102694;28;20030;-61
2021/03/15 08:10:52;;;;;;;4.32;2.67;;;;;;;;;;5102366;28;20048;-61
2021/03/15 08:13:20;;;;;;;3.67;2.55;;;;;;;;;;5102210;28;20019;-61
2021/03/15 08:15:47;;;;;;;7.10;2.80;;;;;;;;;;5103453;28;20067;-61
2021/03/15 08:18:19;;;;;;;4.22;2.10;;;;;;;;;;5098057;28;20046;-62
2021/03/15 08:20:47;;;;;;;3.90;2.40;;;;;;;;;;5103779;28;20039;-62
2021/03/15 08:23:13;;;;;;;4.65;2.53;;;;;;;;;;5099353;28;20028;-62
2021/03/15 08:25:43;;;;;;;4.65;2.60;;;;;;;;;;5102203;28;20038;-62
2021/03/15 08:28:11;;;;;;;3.70;2.40;;;;;;;;;;5092780;28;20055;-63
2021/03/15 08:30:40;;;;;;;3.60;2.08;;;;;;;;;;5101129;28;20522;-61
2021/03/15 08:33:07;;;;;;;3.35;2.20;;;;;;;;;;5101844;28;20035;-62
2021/03/15 08:35:32;;;;;;;5.60;2.35;;;;;;;;;;5103695;28;20624;-62
2021/03/15 08:38:03;;;;;;;3.80;2.40;;;;;;;;;;5105725;28;20076;-62
2021/03/15 08:40:41;;;;;;;3.90;2.03;;;;;;;;;;5104048;28;20032;-62
2021/03/15 08:43:18;;;;;;;3.83;2.40;;;;;;;;;;5102576;28;20031;-62
2021/03/15 08:46:02;;;;;;;4.07;1.90;;;;;;;;;;5091919;28;20028;-62
2021/03/15 08:48:33;;;;;;;3.72;2.03;;;;;;;;;;5092984;28;20437;-62
2021/03/15 08:50:59;;;;;;;;;;;;;;;;;;5099301;28;20625;-62
2021/03/15 08:53:37;;;;;;;2.50;1.20;;;;;;;;;;5103794;28;19908;-62
2021/03/15 08:56:18;;;;;;;3.35;1.60;;;;;;;;;;5102715;28;20110;-62
2021/03/15 08:58:44;;;;;;;3.50;1.73;;;;;;;;;;5096083;28;20043;-62
2021/03/15 09:01:15;;;;;;;2.92;1.50;;;;;;;;;;5102103;28;20643;-62
2021/03/15 09:03:57;;;;;;;3.07;1.67;;;;;;;;;;5100376;28;20024;-62
2021/03/15 09:09:01;;;;;;;3.60;1.52;;;;;;;;;;5104624;28;20040;-61
2021/03/15 09:11:36;;;;;;;3.25;1.50;;;;;;;;;;5100851;28;20031;-62
2021/03/15 09:14:13;;;;;;;3.58;1.75;;;;;;;;;;5097766;28;20036;-63
2021/03/15 09:16:49;;;;;;;4.22;1.52;;;;;;;;;;5100941;28;20028;-62
2021/03/15 09:19:18;;;;;;;7.22;1.27;;;;;;;;;;5092697;28;20028;-62
2021/03/15 09:22:05;;;;;;;2.88;1.30;;;;;;;;;;5102076;28;20130;-62
2021/03/15 09:24:33;;;;;;;2.50;1.23;;;;;;;;;;5101940;28;20061;-63
2021/03/15 09:26:58;;;;;;;2.72;1.63;;;;;;;;;;5094818;28;20031;-62
2021/03/15 09:29:24;;;;;;;2.50;1.30;;;;;;;;;;5098463;28;20042;-63
2021/03/15 09:32:11;;;;;;;2.25;0.90;;;;;;;;;;5102210;28;20351;-63
2021/03/15 09:34:37;;;;;;;2.33;1.13;;;;;;;;;;5100808;28;20461;-63
2021/03/15 09:37:04;;;;;;;2.75;1.17;;;;;;;;;;5105029;28;20496;-63
2021/03/15 09:39:31;;;;;;;3.15;1.23;;;;;;;;;;5102847;28;20142;-63
2021/03/15 09:41:58;;;;;;;4.40;1.05;;;;;;;;;;5104012;28;20100;-63
2021/03/15 09:44:29;;;;;;;1.60;0.90;;;;;;;;;;5100201;28;20037;-63
2021/03/15 09:46:55;;;;;;;1.30;0.73;;;;;;;;;;5104617;28;20131;-63
2021/03/15 09:49:39;;;;;;;3.03;1.40;;;;;;;;;;5103100;28;20024;-63
2021/03/15 09:52:12;;;;;;;2.05;0.88;;;;;;;;;;5102539;28;20089;-63
2021/03/15 09:54:42;;;;;;;1.58;0.90;;;;;;;;;;5093809;28;20036;-63
2021/03/15 09:57:08;;;;;;;1.88;1.05;;;;;;;;;;5102968;28;20032;-63
2021/03/15 09:59:34;;;;;;;2.67;0.80;;;;;;;;;;5093889;28;20082;-62
2021/03/15 10:01:59;;;;;;;4.93;1.20;;;;;;;;;;5096147;28;20425;-63
2021/03/15 10:04:33;;;;;;;2.42;1.17;;;;;;;;;;5093445;28;20046;-63
2021/03/15 10:06:59;;;;;;;2.65;0.98;;;;;;;;;;5103472;28;20389;-63
2021/03/15 10:09:25;;;;;;;2.08;1.05;;;;;;;;;;5101352;28;20062;-63
2021/03/15 10:11:50;;;;;;;2.97;1.10;;;;;;;;;;5102381;28;20062;-63
2021/03/15 10:14:16;;;;;;;1.73;0.80;;;;;;;;;;5099766;28;20031;-63
2021/03/15 10:16:55;;;;;;;2.05;1.02;;;;;;;;;;5103408;28;20039;-63
2021/03/15 10:19:27;;;;;;;2.00;1.13;;;;;;;;;;5095283;28;20083;-63
2021/03/15 10:21:53;;;;;;;3.60;1.38;;;;;;;;;;5092730;28;20144;-63
2021/03/15 10:24:35;;;;;;;4.65;1.50;;;;;;;;;;5098327;28;20027;-63
2021/03/15 10:27:01;;;;;;;2.08;0.98;;;;;;;;;;5104114;28;20031;-63
2021/03/15 10:29:27;;;;;;;2.22;1.02;;;;;;;;;;5100123;28;20024;-63
2021/03/15 10:31:53;;;;;;;2.35;1.10;;;;;;;;;;5103639;28;20381;-63
2021/03/15 10:34:22;;;;;;;3.55;1.30;;;;;;;;;;5103380;28;20067;-63
2021/03/15 10:36:48;;;;;;;6.90;1.73;;;;;;;;;;5106962;28;20063;-63
2021/03/15 10:39:14;;;;;;;3.28;1.05;;;;;;;;;;5106711;28;20077;-63
2021/03/15 10:41:40;;;;;;;2.72;1.20;;;;;;;;;;5105313;28;20051;-63
2021/03/15 10:44:06;;;;;;;3.13;1.67;;;;;;;;;;5106832;28;20027;-63
2021/03/15 10:46:45;;;;;;;3.33;1.23;;;;;;;;;;5103957;28;20479;-64
2021/03/15 10:49:18;;;;;;;3.13;1.33;;;;;;;;;;5107793;28;20074;-63
2021/03/15 10:51:45;;;;;;;4.85;1.75;;;;;;;;;;5105873;28;20544;-63
2021/03/15 10:54:11;;;;;;;4.13;1.42;;;;;;;;;;5108069;28;20027;-63
2021/03/15 10:56:36;;;;;;;5.20;1.65;;;;;;;;;;5102939;28;20036;-63
2021/03/15 10:59:03;;;;;;;5.35;1.83;;;;;;;;;;5107899;28;20056;-63
2021/03/15 11:01:28;;;;;;;7.65;1.52;;;;;;;;;;5104924;28;20071;-63
2021/03/15 11:04:09;;;;;;;4.03;1.65;;;;;;;;;;5104246;28;20422;-63
2021/03/15 11:06:34;;;;;;;3.58;1.50;;;;;;;;;;5105511;28;20122;-64
2021/03/15 11:09:00;;;;;;;2.72;1.30;;;;;;;;;;5105202;28;20139;-63
2021/03/15 11:11:27;;;;;;;6.93;1.95;;;;;;;;;;5105797;28;20369;-63
2021/03/15 11:13:54;;;;;;;4.85;1.95;;;;;;;;;;5105011;28;20049;-63
2021/03/15 11:16:28;;;;;;;3.83;1.40;;;;;;;;;;5106449;28;20032;-63
2021/03/15 11:19:10;;;;;;;3.75;1.60;;;;;;;;;;5099741;28;20062;-63
2021/03/15 11:21:37;;;;;;;3.63;1.55;;;;;;;;;;5103734;28;20488;-64
2021/03/15 11:24:04;;;;;;;3.78;1.83;;;;;;;;;;5103254;28;20365;-63
2021/03/15 11:26:49;;;;;;;7.53;1.80;;;;;;;;;;5104671;28;20027;-63
2021/03/15 11:29:15;;;;;;;4.20;1.52;;;;;;;;;;5104201;28;20035;-62
2021/03/15 11:31:52;;;;;;;6.00;1.50;;;;;;;;;;5103230;28;20051;-62
2021/03/15 11:34:25;;;;;;;4.95;2.00;;;;;;;;;;5102322;28;20534;-62
2021/03/15 11:36:52;;;;;;;3.22;1.63;;;;;;;;;;5106732;28;20055;-62
2021/03/15 11:39:18;;;;;;;5.32;1.38;;;;;;;;;;5100840;28;20039;-63
2021/03/15 11:41:45;;;;;;;2.95;1.67;;;;;;;;;;5103872;28;20028;-63
2021/03/15 11:44:11;;;;;;;3.90;1.60;;;;;;;;;;5106950;28;20465;-63
2021/03/15 11:46:38;;;;;;;4.22;2.13;;;;;;;;;;5101538;28;20035;-63
2021/03/15 11:49:03;;;;;;;3.17;1.70;;;;;;;;;;5106708;28;20045;-63
2021/03/15 11:51:29;;;;;;;5.22;1.60;;;;;;;;;;5103370;28;20110;-63
2021/03/15 11:53:54;;;;;;;3.08;1.33;;;;;;;;;;5102839;28;20035;-63
2021/03/15 11:56:20;;;;;;;3.63;1.60;;;;;;;;;;5088075;28;20028;-63
2021/03/15 11:58:47;;;;;;;3.53;1.65;;;;;;;;;;5093298;28;20038;-62
2021/03/15 12:01:12;;;;;;;4.38;1.85;;;;;;;;;;5091053;28;20039;-63
2021/03/15 12:03:38;;;;;;;3.17;1.30;;;;;;;;;;5094749;28;20042;-63
2021/03/15 12:06:04;;;;;;;3.97;1.45;;;;;;;;;;5103871;28;20031;-63
2021/03/15 12:08:30;;;;;;;3.33;1.55;;;;;;;;;;5096874;28;20038;-63
2021/03/15 12:10:57;;;;;;;4.22;1.50;;;;;;;;;;5104392;28;20039;-63
2021/03/15 12:13:22;;;;;;;6.53;2.00;;;;;;;;;;5100538;28;20027;-63
2021/03/15 12:15:48;;;;;;;5.88;2.30;;;;;;;;;;5104717;28;20023;-63
2021/03/15 12:18:13;;;;;;;8.95;2.22;;;;;;;;;;5098810;28;20473;-63
2021/03/15 12:20:40;;;;;;;5.32;2.50;;;;;;;;;;5101054;28;20119;-63
2021/03/15 12:23:06;;;;;;;7.95;2.53;;;;;;;;;;5094834;28;20031;-63
2021/03/15 12:25:35;;;;;;;4.50;2.40;;;;;;;;;;5100169;28;20027;-63
2021/03/15 12:28:02;;;;;;;5.22;2.30;;;;;;;;;;5105047;28;20038;-63
2021/03/15 12:30:27;;;;;;;5.07;2.80;;;;;;;;;;5089577;28;20472;-63
2021/03/15 12:32:53;;;;;;;8.00;2.45;;;;;;;;;;5101123;28;20062;-63
2021/03/15 12:35:19;;;;;;;9.50;2.85;;;;;;;;;;5096830;28;20363;-63
2021/03/15 12:37:45;;;;;;;4.88;2.78;;;;;;;;;;5104322;28;20623;-63
2021/03/15 12:40:11;;;;;;;4.63;2.50;;;;;;;;;;5104009;28;20043;-63
2021/03/15 12:42:37;;;;;;;5.63;2.22;;;;;;;;;;5102213;28;20135;-64
2021/03/15 12:45:06;;;;;;;6.90;2.45;;;;;;;;;;5103314;28;20096;-63
2021/03/15 12:47:31;;;;;;;4.28;2.28;;;;;;;;;;5102785;28;20119;-63
2021/03/15 12:49:56;;;;;;;4.28;2.33;;;;;;;;;;5104256;28;20126;-63
2021/03/15 12:52:22;;;;;;;6.72;2.10;;;;;;;;;;5100146;28;20036;-63
2021/03/15 12:54:47;;;;;;;5.32;2.70;;;;;;;;;;5104823;28;20770;-63
2021/03/15 12:57:13;;;;;;;4.78;2.50;;;;;;;;;;5105383;28;20043;-63
2021/03/15 12:59:39;;;;;;;5.65;2.70;;;;;;;;;;5100119;28;20676;-63
2021/03/15 13:02:05;;;;;;;6.70;3.08;;;;;;;;;;5104751;28;20031;-63
2021/03/15 13:04:30;;;;;;;6.10;2.63;;;;;;;;;;5101447;28;20031;-64
2021/03/15 13:06:56;;;;;;;4.88;2.63;;;;;;;;;;5101140;28;20035;-64
2021/03/15 13:09:21;;;;;;;5.47;2.60;;;;;;;;;;5101370;28;20023;-63
2021/03/15 13:11:47;;;;;;;9.48;3.13;;;;;;;;;;5101235;28;20031;-64
2021/03/15 13:14:13;;;;;;;7.50;2.47;;;;;;;;;;5100144;28;20035;-64
2021/03/15 13:16:38;;;;;;;3.83;1.60;;;;;;;;;;5100927;28;20031;-63
2021/03/15 13:19:04;;;;;;;3.15;1.00;;;;;;;;;;5093374;28;20449;-72
2021/03/15 13:21:29;;;;;;;4.38;0.82;;;;;;;;;;5099683;28;20035;-72
2021/03/15 13:23:54;;;;;;;2.25;1.08;;;;;;;;;;5102776;28;20036;-72
2021/03/15 13:26:20;;;;;;;2.60;1.10;;;;;;;;;;5104109;28;20039;-72
2021/03/15 13:28:45;;;;;;;4.13;0.95;;;;;;;;;;5100189;28;20028;-71
2021/03/15 13:31:11;;;;;;;4.80;1.17;;;;;;;;;;5094102;28;20063;-71
2021/03/15 13:33:36;;;;;;;3.03;1.20;;;;;;;;;;5101818;28;20082;-70
2021/03/15 13:36:02;;;;;;;6.00;1.60;;;;;;;;;;5100754;28;20032;-71
2021/03/15 13:38:29;;;;;;;4.28;1.27;;;;;;;;;;5095296;28;20039;-71
2021/03/15 13:40:55;;;;;;;5.65;1.70;;;;;;;;;;5103432;28;20042;-72
2021/03/15 13:43:22;;;;;;;5.00;1.88;;;;;;;;;;5104315;28;20356;-69
2021/03/15 13:45:48;;;;;;;5.00;1.67;;;;;;;;;;5104867;28;20198;-74
2021/03/15 13:48:13;;;;;;;3.20;1.75;;;;;;;;;;5102929;28;20114;-73
2021/03/15 13:50:38;;;;;;;5.07;2.08;;;;;;;;;;5102435;28;20050;-72
2021/03/15 13:53:04;;;;;;;5.60;1.48;;;;;;;;;;5104331;28;20475;-74
2021/03/15 13:55:30;;;;;;;3.63;1.73;;;;;;;;;;5091449;28;20035;-73
2021/03/15 13:57:55;;;;;;;3.85;1.60;;;;;;;;;;5085189;28;20044;-72
2021/03/15 14:00:21;;;;;;;3.42;1.48;;;;;;;;;;5089956;28;20043;-73
2021/03/15 14:02:47;;;;;;;8.00;1.90;;;;;;;;;;5092419;28;20706;-73
2021/03/15 14:05:13;;;;;;;5.43;1.92;;;;;;;;;;5103196;28;20069;-71
2021/03/15 14:07:38;;;;;;;11.52;2.22;;;;;;;;;;5096605;28;20041;-71
2021/03/15 14:10:05;;;;;;;6.20;2.00;;;;;;;;;;5101423;28;20164;-71
2021/03/15 14:12:31;;;;;;;5.22;1.80;;;;;;;;;;5101516;28;20490;-70
2021/03/15 14:14:57;;;;;;;3.90;1.42;;;;;;;;;;5099028;28;20036;-71
2021/03/15 14:17:23;;;;;;;6.72;1.15;;;;;;;;;;5096284;28;20051;-71
2021/03/15 14:19:49;;;;;;;2.83;1.17;;;;;;;;;;5104086;28;20031;-71
2021/03/15 14:22:14;;;;;;;1.33;0.60;;;;;;;;;;5107300;28;20038;-70
2021/03/15 14:24:41;;;;;;;2.50;1.00;;;;;;;;;;5102362;28;20034;-69
2021/03/15 14:27:07;;;;;;;2.10;1.05;;;;;;;;;;5103320;28;20408;-71
2021/03/15 14:29:33;;;;;;;1.92;1.02;;;;;;;;;;5100044;28;20042;-70
2021/03/15 14:31:58;;;;;;;2.83;1.27;;;;;;;;;;5104423;28;20023;-70
2021/03/15 14:34:24;;;;;;;2.63;1.27;;;;;;;;;;5095571;28;20519;-70
2021/03/15 14:36:49;;;;;;;2.08;1.10;;;;;;;;;;5106574;28;20035;-73
2021/03/15 14:39:14;;;;;;;2.05;1.17;;;;;;;;;;5106803;28;20045;-73
2021/03/15 14:41:40;;;;;;;2.38;1.13;;;;;;;;;;5106162;28;20043;-73
2021/03/15 14:44:06;;;;;;;4.07;1.50;;;;;;;;;;5103481;28;20039;-74
2021/03/15 14:46:31;;;;;;;3.72;1.67;;;;;;;;;;5104634;28;20032;-75
2021/03/15 14:48:57;;;;;;;4.85;1.90;;;;;;;;;;5107723;28;20039;-48
2021/03/15 14:51:23;;;;;;;8.35;2.35;;;;;;;;;;5101344;28;20035;-49
2021/03/15 14:53:48;;;;;;;3.30;1.67;;;;;;;;;;5105281;28;20152;-49